Time;durP1;ratioP1;P1;durP2;ratioP2;P2;SDS_P1;SDS_P2;PMS_P1;PMS_P2;Temp;Humidity;BMP_temperature;BMP_pressure;BME280_temperature;BME280_humidity;BME280_pressure;Samples;Min_cycle;Max_cycle;Signal;HPM_P1;HPM_P2
2021/12/18 00:00:34;;;;;;;41.25;19.30;;;;;;;-2.97;70.56;94456.97;2071159;69;20531;-67
2021/12/18 00:03:00;;;;;;;39.90;19.67;;;;;;;-3.02;69.26;94456.84;2071126;69;20148;-69
2021/12/18 00:05:26;;;;;;;38.78;19.45;;;;;;;-2.97;69.41;94454.19;2071260;69;20587;-68
2021/12/18 00:07:52;;;;;;;32.72;16.95;;;;;;;-2.84;69.44;94460.16;2070977;69;20687;-67
2021/12/18 00:10:20;;;;;;;35.13;17.38;;;;;;;-2.97;69.88;94461.72;2071287;69;20145;-68
2021/12/18 00:12:49;;;;;;;37.08;17.58;;;;;;;-2.86;69.54;94457.09;2070986;69;20616;-66
2021/12/18 00:15:23;;;;;;;34.20;17.02;;;;;;;-2.83;69.76;94458.91;2071130;69;20164;-67
2021/12/18 00:17:48;;;;;;;33.50;17.42;;;;;;;-2.86;69.66;94457.09;2071013;69;20140;-69
2021/12/18 00:20:16;;;;;;;35.22;17.75;;;;;;;-3.33;71.28;94461.69;2071140;69;20705;-67
2021/12/18 00:22:43;;;;;;;36.30;17.88;;;;;;;-3.21;70.57;94468.13;2070732;69;20153;-68
2021/12/18 00:25:09;;;;;;;33.88;18.05;;;;;;;-3.28;70.51;94463.03;2070228;69;20149;-68
2021/12/18 00:27:35;;;;;;;35.63;16.77;;;;;;;-3.08;70.01;94462.28;2071378;69;20228;-67
2021/12/18 00:30:05;;;;;;;32.05;15.75;;;;;;;-3.01;69.69;94458.41;2071536;69;20187;-67
2021/12/18 00:32:34;;;;;;;35.47;18.45;;;;;;;-3.21;70.22;94446.06;2068775;69;20235;-67
2021/12/18 00:35:00;;;;;;;31.85;16.27;;;;;;;-3.04;69.60;94448.31;2071633;69;20140;-67
2021/12/18 00:37:29;;;;;;;33.85;17.55;;;;;;;-3.37;70.82;94458.38;2071397;69;20236;-68
2021/12/18 00:39:58;;;;;;;34.50;16.75;;;;;;;-3.20;70.60;94461.41;2071548;69;20191;-67
2021/12/18 00:42:38;;;;;;;36.38;17.75;;;;;;;-3.24;69.44;94458.06;2071388;69;20164;-69
2021/12/18 00:45:10;;;;;;;36.05;17.95;;;;;;;-3.35;70.90;94453.13;2071508;69;20145;-68
2021/12/18 00:47:37;;;;;;;33.00;17.30;;;;;;;-3.23;69.94;94458.84;2071800;69;20233;-73
2021/12/18 00:50:05;;;;;;;32.83;16.55;;;;;;;-3.28;69.72;94465.03;2067856;69;20222;-68
2021/12/18 00:52:32;;;;;;;33.33;17.00;;;;;;;-3.26;70.06;94459.78;2070961;69;20594;-68
2021/12/18 00:54:59;;;;;;;34.35;16.20;;;;;;;-3.11;69.57;94458.53;2071059;69;20152;-68
2021/12/18 00:57:25;;;;;;;32.63;16.67;;;;;;;-3.13;69.69;94465.72;2070542;69;20244;-68
2021/12/18 00:59:53;;;;;;;34.80;17.05;;;;;;;-3.13;69.88;94451.97;2071454;69;20675;-68
2021/12/18 01:02:19;;;;;;;31.15;16.25;;;;;;;-3.15;68.81;94454.44;2071287;69;20175;-68
2021/12/18 01:04:45;;;;;;;27.23;14.82;;;;;;;-3.19;69.96;94449.13;2070736;69;20151;-67
2021/12/18 01:07:11;;;;;;;33.58;15.77;;;;;;;-3.26;70.19;94457.78;2070884;69;20152;-68
2021/12/18 01:09:59;;;;;;;27.52;13.90;;;;;;;-3.18;69.91;94449.88;2070932;69;20170;-67
2021/12/18 01:12:28;;;;;;;26.17;14.52;;;;;;;-3.26;69.90;94457.03;2070875;69;20159;-68
2021/12/18 01:15:08;;;;;;;26.43;14.63;;;;;;;-3.21;70.12;94464.59;2070751;69;20156;-67
2021/12/18 01:22:48;;;;;;;26.70;13.70;;;;;;;-3.05;69.86;94464.09;2071948;69;20207;-67
2021/12/18 01:25:19;;;;;;;24.88;13.50;;;;;;;-3.11;69.91;94464.03;2071728;69;20148;-67
2021/12/18 01:27:45;;;;;;;26.73;13.13;;;;;;;-3.10;70.34;94470.28;2071820;69;20232;-68
2021/12/18 01:30:13;;;;;;;25.65;12.02;;;;;;;-3.07;69.99;94469.31;2072015;69;20228;-68
2021/12/18 01:32:39;;;;;;;23.33;11.20;;;;;;;-3.10;69.93;94459.28;2071964;69;20601;-67
2021/12/18 01:35:05;;;;;;;20.45;10.02;;;;;;;-2.95;69.56;94467.50;2071988;69;20145;-68
2021/12/18 01:37:31;;;;;;;24.10;11.90;;;;;;;-3.12;70.93;94465.25;2071425;69;20164;-67
2021/12/18 01:39:57;;;;;;;27.77;14.10;;;;;;;-3.23;70.97;94464.34;2071808;69;20229;-67
2021/12/18 01:53:10;;;;;;;32.05;15.43;;;;;;;-3.36;70.59;94465.41;2071437;69;20599;-69
2021/12/18 01:55:38;;;;;;;33.67;15.75;;;;;;;-3.30;69.98;94461.97;2071273;69;20144;-69
2021/12/18 01:58:05;;;;;;;29.52;14.57;;;;;;;-3.50;70.05;94452.41;2071973;69;20159;-67
2021/12/18 02:00:38;;;;;;;29.85;14.88;;;;;;;-3.41;69.39;94460.56;2071260;69;20136;-67
2021/12/18 02:03:04;;;;;;;26.25;13.52;;;;;;;-3.41;68.99;94460.56;2071182;69;20174;-68
2021/12/18 02:05:30;;;;;;;26.30;13.68;;;;;;;-3.25;69.73;94458.53;2071174;69;20152;-67
2021/12/18 02:07:57;;;;;;;25.63;13.25;;;;;;;-3.16;69.61;94456.44;2071135;69;20148;-67
2021/12/18 02:10:27;;;;;;;24.60;13.07;;;;;;;-3.24;69.98;94463.59;2071417;69;20575;-69
2021/12/18 02:20:59;;;;;;;29.00;15.13;;;;;;;-3.68;70.95;94463.63;2071239;69;20204;-67
2021/12/18 02:23:25;;;;;;;33.28;16.20;;;;;;;-3.65;70.64;94457.19;2071316;69;20254;-68
2021/12/18 02:25:51;;;;;;;25.15;14.45;;;;;;;-3.53;70.42;94461.63;2071782;69;20583;-68
2021/12/18 02:28:25;;;;;;;31.05;15.57;;;;;;;-3.54;70.97;94467.63;2071327;69;20160;-68
2021/12/18 02:30:58;;;;;;;26.52;13.45;;;;;;;-3.44;69.93;94472.53;2071229;69;20527;-68
2021/12/18 02:33:25;;;;;;;25.00;12.50;;;;;;;-3.39;69.86;94460.88;2071431;69;20176;-68
2021/12/18 02:35:53;;;;;;;26.45;13.73;;;;;;;-3.44;70.18;94458.75;2071643;69;20327;-70
2021/12/18 02:38:33;;;;;;;24.65;12.82;;;;;;;-3.61;71.03;94455.00;2070151;69;20567;-69
2021/12/18 02:43:38;;;;;;;26.13;12.55;;;;;;;-3.76;72.34;94466.00;2067952;69;20224;-71
2021/12/18 02:46:09;;;;;;;24.75;12.70;;;;;;;-3.51;71.01;94463.91;2067864;69;20140;-71
2021/12/18 02:48:41;;;;;;;24.73;12.60;;;;;;;-3.46;70.59;94472.25;2067940;69;20156;-70
2021/12/18 02:51:08;;;;;;;22.52;11.40;;;;;;;-3.35;70.26;94474.41;2067811;69;20255;-70
2021/12/18 02:53:35;;;;;;;20.13;11.05;;;;;;;-3.41;70.21;94457.81;2064520;69;20141;-69
2021/12/18 02:56:04;;;;;;;23.10;9.60;;;;;;;-3.28;70.42;94465.03;2068010;69;20157;-69
2021/12/18 02:58:37;;;;;;;23.92;11.32;;;;;;;-3.64;71.66;94466.97;2064639;69;20156;-69
2021/12/18 03:01:06;;;;;;;23.65;11.75;;;;;;;-3.50;70.98;94455.16;2071345;69;20206;-67
2021/12/18 03:03:35;;;;;;;21.55;11.32;;;;;;;-3.53;70.57;94460.88;2071166;69;20240;-68
2021/12/18 03:25:29;;;;;;;21.58;10.60;;;;;;;-3.65;70.28;94449.69;2070836;69;20139;-68
2021/12/18 03:27:58;;;;;;;17.30;9.15;;;;;;;-3.50;70.25;94452.41;2071219;69;20148;-68
2021/12/18 03:30:24;;;;;;;21.08;10.73;;;;;;;-3.66;71.02;94453.69;2071061;69;20164;-68
2021/12/18 03:32:49;;;;;;;21.15;10.25;;;;;;;-4.11;72.62;94447.41;2071130;69;20578;-68
2021/12/18 03:35:16;;;;;;;20.10;9.73;;;;;;;-3.71;71.61;94442.56;2071134;69;20152;-69
2021/12/18 03:37:42;;;;;;;21.67;10.43;;;;;;;-3.74;71.26;94447.03;2067103;69;20160;-68
2021/12/18 03:40:11;;;;;;;19.98;10.00;;;;;;;-3.69;70.42;94435.34;2067695;69;20739;-67
2021/12/18 03:42:37;;;;;;;21.90;10.50;;;;;;;-3.72;70.11;94441.81;2067803;69;20259;-69
2021/12/18 03:45:06;;;;;;;17.63;8.80;;;;;;;-3.76;70.17;94426.72;2064267;69;20215;-69
2021/12/18 03:47:32;;;;;;;16.92;9.60;;;;;;;-3.68;70.37;94434.13;2064513;69;20608;-71
2021/12/18 03:49:58;;;;;;;16.58;9.45;;;;;;;-3.64;69.92;94422.91;2067747;69;20847;-69
2021/12/18 03:52:24;;;;;;;16.23;9.32;;;;;;;-3.70;71.18;94435.84;2067675;69;20151;-71
2021/12/18 03:54:50;;;;;;;18.17;8.43;;;;;;;-3.71;71.78;94428.78;2067819;69;20145;-72
2021/12/18 03:57:15;;;;;;;17.77;9.07;;;;;;;-3.70;71.05;94439.34;2067800;69;20151;-68
2021/12/18 03:59:41;;;;;;;15.70;8.68;;;;;;;-3.62;70.15;94426.72;2067779;69;20237;-70
2021/12/18 04:02:07;;;;;;;13.25;7.80;;;;;;;-3.65;70.69;94426.91;2067886;69;20615;-72
2021/12/18 04:04:32;;;;;;;17.33;9.23;;;;;;;-4.16;72.40;94434.31;2067615;69;20167;-69
2021/12/18 04:06:59;;;;;;;16.42;8.95;;;;;;;-3.82;71.17;94429.38;2067367;69;20144;-71
2021/12/18 04:09:28;;;;;;;19.23;9.32;;;;;;;-3.84;71.28;94423.59;2067647;69;20184;-69
2021/12/18 04:11:54;;;;;;;18.40;9.20;;;;;;;-4.01;72.40;94433.56;2067600;69;20176;-70
2021/12/18 04:14:20;;;;;;;24.02;11.18;;;;;;;-4.04;71.99;94432.50;2067921;69;20158;-69
2021/12/18 04:16:45;;;;;;;16.17;9.60;;;;;;;-3.92;71.08;94434.22;2067676;69;20156;-71
2021/12/18 04:19:11;;;;;;;20.13;9.93;;;;;;;-3.89;70.74;94430.53;2067775;69;20156;-71
2021/12/18 04:21:37;;;;;;;16.35;9.07;;;;;;;-3.83;71.00;94423.13;2064305;69;20214;-71
2021/12/18 04:24:03;;;;;;;14.50;8.30;;;;;;;-3.70;71.06;94428.34;2067725;69;20156;-70
2021/12/18 04:26:31;;;;;;;17.50;8.82;;;;;;;-3.76;70.94;94437.72;2067872;69;20155;-71
2021/12/18 04:28:57;;;;;;;17.83;8.30;;;;;;;-3.83;71.92;94430.63;2067669;69;20156;-70
2021/12/18 04:31:23;;;;;;;21.00;10.82;;;;;;;-4.04;72.64;94438.00;2064384;69;20159;-69
2021/12/18 04:33:49;;;;;;;20.15;10.00;;;;;;;-3.93;71.67;94438.22;2067698;69;20144;-70
2021/12/18 04:36:15;;;;;;;20.63;10.23;;;;;;;-3.93;71.49;94440.97;2067647;69;20171;-70
2021/12/18 04:38:40;;;;;;;20.73;10.43;;;;;;;-4.02;71.38;94437.56;2067611;69;20232;-69
2021/12/18 04:41:06;;;;;;;19.67;10.10;;;;;;;-4.10;71.97;94432.41;2067777;69;20512;-69
2021/12/18 04:43:32;;;;;;;20.90;10.32;;;;;;;-3.99;71.79;94426.34;2067697;69;20176;-69
2021/12/18 04:45:58;;;;;;;20.17;9.77;;;;;;;-4.02;71.05;94429.31;2067917;69;20160;-69
2021/12/18 04:48:23;;;;;;;20.20;9.93;;;;;;;-3.91;71.36;94424.72;2067763;69;20248;-71
2021/12/18 04:50:49;;;;;;;17.98;10.35;;;;;;;-3.85;71.34;94420.09;2067459;69;20136;-68
2021/12/18 04:53:15;;;;;;;20.08;10.57;;;;;;;-4.03;71.61;94430.50;2067970;69;20211;-69
2021/12/18 04:55:40;;;;;;;20.35;9.82;;;;;;;-4.11;71.56;94432.91;2067700;69;20148;-69
2021/12/18 04:58:06;;;;;;;18.98;9.75;;;;;;;-4.01;70.99;94431.56;2067778;69;20168;-69
2021/12/18 05:00:40;;;;;;;20.33;10.48;;;;;;;-3.94;71.39;94439.47;2067871;69;20192;-69
2021/12/18 05:03:10;;;;;;;21.58;10.35;;;;;;;-4.11;72.11;94433.66;2067784;69;20578;-68
2021/12/18 05:05:36;;;;;;;19.13;10.52;;;;;;;-4.01;70.44;94437.06;2067770;69;20225;-69
2021/12/18 05:08:03;;;;;;;18.20;10.23;;;;;;;-4.02;70.65;94443.06;2067980;69;20256;-69
2021/12/18 05:10:29;;;;;;;21.30;10.35;;;;;;;-4.04;71.10;94451.00;2068107;69;20233;-68
2021/12/18 05:12:55;;;;;;;21.25;10.50;;;;;;;-4.03;70.95;94455.28;2068018;69;20606;-68
2021/12/18 05:15:21;;;;;;;20.58;9.90;;;;;;;-3.87;70.89;94447.31;2067893;69;20139;-68
2021/12/18 05:17:47;;;;;;;16.48;9.50;;;;;;;-3.85;70.97;94455.09;2068059;69;20155;-68
2021/12/18 05:20:12;;;;;;;16.73;10.15;;;;;;;-3.95;70.66;94456.41;2068138;69;20156;-68
2021/12/18 05:22:38;;;;;;;19.92;10.25;;;;;;;-3.91;70.21;94459.75;2068058;69;20145;-68
2021/12/18 05:25:06;;;;;;;19.15;10.20;;;;;;;-3.95;70.47;94459.19;2068131;69;20221;-69
2021/12/18 05:27:32;;;;;;;18.42;10.85;;;;;;;-3.96;70.47;94463.91;2068000;69;20611;-68
2021/12/18 05:29:58;;;;;;;18.13;10.70;;;;;;;-4.00;71.09;94468.09;2068129;69;20211;-69
2021/12/18 05:32:24;;;;;;;19.42;10.20;;;;;;;-3.98;70.87;94463.66;2068094;69;20148;-71
2021/12/18 05:34:50;;;;;;;17.65;10.02;;;;;;;-3.96;70.72;94469.44;2064842;69;20152;-69
2021/12/18 05:37:42;;;;;;;20.90;10.35;;;;;;;-4.07;71.09;94466.50;2068001;69;20145;-70
2021/12/18 05:40:08;;;;;;;20.67;10.98;;;;;;;-4.10;72.08;94468.19;2068146;69;20214;-69
2021/12/18 05:42:34;;;;;;;22.52;10.52;;;;;;;-3.94;71.71;94469.72;2068337;69;20234;-71
2021/12/18 05:44:59;;;;;;;21.80;10.13;;;;;;;-3.84;70.37;94465.66;2067987;69;20279;-69
2021/12/18 05:47:25;;;;;;;20.95;10.73;;;;;;;-3.93;70.73;94460.22;2068192;69;20168;-70
2021/12/18 05:49:51;;;;;;;22.73;10.50;;;;;;;-4.09;70.93;94460.69;2068136;69;20145;-69
2021/12/18 05:52:16;;;;;;;20.13;11.13;;;;;;;-4.53;72.41;94469.63;2067965;69;20137;-69
2021/12/18 05:54:42;;;;;;;25.42;12.38;;;;;;;-4.19;71.57;94465.50;2068053;69;20619;-68
2021/12/18 05:57:09;;;;;;;27.75;12.40;;;;;;;-4.08;70.81;94470.44;2068033;69;20504;-68
2021/12/18 05:59:36;;;;;;;23.25;12.00;;;;;;;-4.34;71.02;94464.75;2068062;69;20156;-70
2021/12/18 06:02:03;;;;;;;24.83;12.00;;;;;;;-4.36;70.75;94467.94;2068311;69;20176;-69
2021/12/18 06:04:28;;;;;;;28.33;12.85;;;;;;;-4.44;70.71;94461.31;2065066;69;20135;-69
2021/12/18 06:07:03;;;;;;;24.67;11.93;;;;;;;-4.31;70.42;94469.28;2068527;69;20144;-69
2021/12/18 06:09:31;;;;;;;23.98;10.90;;;;;;;-4.18;70.40;94461.53;2068625;69;20152;-69
2021/12/18 06:11:57;;;;;;;30.77;12.98;;;;;;;-4.32;70.65;94461.50;2068667;69;20156;-70
2021/12/18 06:14:23;;;;;;;26.48;13.70;;;;;;;-4.29;70.52;94464.09;2062414;69;20484;-71
2021/12/18 06:16:49;;;;;;;26.30;12.52;;;;;;;-4.32;70.53;94467.78;2068531;69;20284;-70
2021/12/18 06:19:15;;;;;;;21.92;11.18;;;;;;;-4.22;70.94;94465.69;2068663;69;20613;-71
2021/12/18 06:21:41;;;;;;;25.48;12.60;;;;;;;-4.29;71.09;94475.09;2068502;69;20148;-69
2021/12/18 06:24:07;;;;;;;23.30;12.38;;;;;;;-4.19;70.65;94479.25;2068632;69;20248;-69
2021/12/18 06:26:33;;;;;;;29.25;12.52;;;;;;;-4.23;70.03;94480.69;2068571;69;20618;-69
2021/12/18 06:28:59;;;;;;;26.45;12.90;;;;;;;-4.13;69.82;94480.13;2068532;69;20152;-68
2021/12/18 06:31:24;;;;;;;35.20;14.90;;;;;;;-4.13;70.04;94480.13;2068503;69;20137;-69
2021/12/18 06:33:50;;;;;;;32.60;15.43;;;;;;;-4.45;71.28;94487.25;2065315;69;20159;-71
2021/12/18 06:36:16;;;;;;;45.65;21.70;;;;;;;-4.42;70.85;94480.84;2068400;69;20176;-71
2021/12/18 06:38:42;;;;;;;31.55;16.55;;;;;;;-4.39;71.03;94482.66;2068554;69;20199;-69
2021/12/18 06:41:08;;;;;;;32.85;17.25;;;;;;;-4.39;71.38;94477.16;2068481;69;20144;-69
2021/12/18 06:43:33;;;;;;;37.78;18.95;;;;;;;-4.41;71.09;94482.34;2068730;69;20560;-68
2021/12/18 06:45:59;;;;;;;36.30;18.75;;;;;;;-4.42;70.76;94478.09;2070040;69;20597;-68
2021/12/18 06:48:24;;;;;;;31.13;17.20;;;;;;;-4.30;70.08;94475.56;2068632;69;20141;-70
2021/12/18 06:50:50;;;;;;;32.78;17.65;;;;;;;-4.35;70.21;94471.47;2068315;69;20175;-69
2021/12/18 06:53:16;;;;;;;32.28;16.10;;;;;;;-4.27;69.83;94478.09;2068520;69;20176;-68
2021/12/18 06:55:42;;;;;;;28.20;14.63;;;;;;;-4.21;70.35;94470.75;2068452;69;20501;-69
2021/12/18 06:58:08;;;;;;;31.85;15.98;;;;;;;-4.16;70.85;94481.09;2068410;69;20198;-68
2021/12/18 07:00:34;;;;;;;30.92;15.00;;;;;;;-4.08;70.42;94486.97;2068583;69;20596;-69
2021/12/18 07:02:59;;;;;;;29.50;14.55;;;;;;;-4.16;71.26;94475.59;2068424;69;20137;-69
2021/12/18 07:05:25;;;;;;;30.00;14.35;;;;;;;-4.10;71.21;94483.94;2068438;69;20157;-69
2021/12/18 07:07:51;;;;;;;24.15;12.75;;;;;;;-4.07;70.92;94491.25;2068305;69;20232;-71
2021/12/18 07:10:18;;;;;;;29.60;15.25;;;;;;;-4.30;71.14;94484.56;2068452;69;20144;-70
2021/12/18 07:12:43;;;;;;;31.25;15.18;;;;;;;-4.26;69.92;94487.13;2065192;69;20156;-69
2021/12/18 07:15:11;;;;;;;35.75;18.17;;;;;;;-4.37;70.80;94482.16;2068202;69;20140;-69
2021/12/18 07:17:37;;;;;;;40.65;18.73;;;;;;;-4.84;71.78;94491.97;2068485;69;20145;-69
2021/12/18 07:20:05;;;;;;;36.65;19.27;;;;;;;-4.62;71.43;94497.19;2068494;69;20180;-69
2021/12/18 07:22:30;;;;;;;44.35;21.02;;;;;;;-4.42;70.13;94485.56;2068841;69;20141;-73
2021/12/18 07:24:56;;;;;;;37.08;19.55;;;;;;;-4.38;70.24;94491.66;2071748;69;20214;-68
2021/12/18 07:27:21;;;;;;;36.60;19.98;;;;;;;-4.28;70.28;94490.34;2071891;69;20255;-70
2021/12/18 07:29:47;;;;;;;44.35;20.85;;;;;;;-4.29;69.64;94493.56;2071888;69;20231;-68
2021/12/18 07:32:14;;;;;;;44.42;19.85;;;;;;;-4.21;70.38;94503.00;2071760;69;20137;-69
2021/12/18 07:34:39;;;;;;;45.38;21.67;;;;;;;-4.23;70.66;94505.44;2071906;69;20140;-68
2021/12/18 07:37:05;;;;;;;45.65;22.08;;;;;;;-4.17;70.54;94507.06;2071716;69;20152;-69
2021/12/18 07:39:31;;;;;;;50.08;23.60;;;;;;;-4.18;70.40;94510.28;2071574;69;20190;-70
2021/12/18 07:41:57;;;;;;;76.40;31.55;;;;;;;-4.25;70.32;94500.41;2071176;69;20180;-70
2021/12/18 07:44:23;;;;;;;105.95;41.47;;;;;;;-4.15;70.75;94507.34;2071351;69;20151;-69
2021/12/18 07:46:49;;;;;;;102.03;41.05;;;;;;;-4.10;70.61;94509.44;2071711;69;20137;-71
2021/12/18 07:49:15;;;;;;;74.78;33.75;;;;;;;-4.17;70.36;94506.28;2071640;69;20152;-69
2021/12/18 07:51:40;;;;;;;88.63;36.50;;;;;;;-4.09;70.78;94512.97;2073147;69;20155;-69
2021/12/18 07:54:06;;;;;;;93.32;40.83;;;;;;;-4.07;70.33;94505.00;2074333;69;20144;-70
2021/12/18 07:56:34;;;;;;;93.82;40.45;;;;;;;-4.00;70.38;94504.63;2071651;69;20290;-71
2021/12/18 07:59:01;;;;;;;87.75;37.47;;;;;;;-4.01;70.63;94507.84;2068489;69;20145;-71
2021/12/18 08:01:27;;;;;;;109.35;40.45;;;;;;;-4.06;70.95;94505.75;2068739;69;20152;-70
2021/12/18 08:03:52;;;;;;;95.60;37.83;;;;;;;-3.93;70.64;94503.50;2068303;69;20246;-73
2021/12/18 08:06:20;;;;;;;89.15;37.72;;;;;;;-3.91;70.73;94492.78;2068280;69;20519;-69
2021/12/18 08:08:46;;;;;;;72.13;34.13;;;;;;;-3.85;70.19;94504.63;2068340;69;20145;-68
2021/12/18 08:11:12;;;;;;;72.80;30.90;;;;;;;-4.15;71.34;94509.34;2068330;69;20151;-70
2021/12/18 08:13:38;;;;;;;68.25;29.92;;;;;;;-3.95;70.82;94503.19;2068269;69;20153;-69
2021/12/18 08:16:04;;;;;;;71.72;31.25;;;;;;;-3.99;71.17;94510.88;2068424;69;20149;-71
2021/12/18 08:18:30;;;;;;;72.07;31.60;;;;;;;-4.07;72.01;94507.00;2068701;69;20253;-69
2021/12/18 08:20:55;;;;;;;69.38;31.00;;;;;;;-3.88;71.05;94519.34;2071551;69;20136;-69
2021/12/18 08:23:21;;;;;;;98.43;49.78;;;;;;;-3.75;71.39;94521.84;2071624;69;20183;-69
2021/12/18 08:25:46;;;;;;;86.95;39.85;;;;;;;-3.69;70.96;94511.69;2071606;69;20160;-69
2021/12/18 08:28:12;;;;;;;79.07;39.70;;;;;;;-3.64;71.03;94502.75;2071669;69;20594;-68
2021/12/18 08:30:39;;;;;;;74.68;36.20;;;;;;;-3.98;72.12;94520.69;2071661;69;20645;-69
2021/12/18 08:33:05;;;;;;;73.30;34.75;;;;;;;-3.75;71.34;94513.59;2071638;69;20176;-69
2021/12/18 08:35:32;;;;;;;65.82;34.00;;;;;;;-3.68;71.57;94515.94;2069614;69;20235;-69
2021/12/18 08:37:59;;;;;;;68.10;33.35;;;;;;;-3.77;71.45;94514.03;2068693;69;20592;-69
2021/12/18 08:40:26;;;;;;;58.22;29.92;;;;;;;-3.74;71.05;94518.59;2068297;69;20140;-68
2021/12/18 08:42:52;;;;;;;54.92;28.52;;;;;;;-3.63;71.00;94516.03;2070629;69;20147;-69
2021/12/18 08:45:18;;;;;;;61.70;28.83;;;;;;;-3.58;70.71;94506.34;2071625;69;20144;-72
2021/12/18 08:47:43;;;;;;;67.13;31.75;;;;;;;-3.52;70.61;94511.97;2070099;69;20166;-70
2021/12/18 08:50:13;;;;;;;66.25;31.98;;;;;;;-3.53;71.31;94511.19;2071542;69;20573;-69
2021/12/18 08:52:39;;;;;;;59.47;30.88;;;;;;;-3.83;72.35;94515.94;2071479;69;20140;-70
2021/12/18 08:55:05;;;;;;;54.30;28.25;;;;;;;-3.34;72.04;94500.75;2071627;69;20143;-69
2021/12/18 08:57:30;;;;;;;58.60;29.42;;;;;;;-3.28;75.46;94511.84;2071575;69;20187;-70
2021/12/18 08:59:56;;;;;;;61.53;32.13;;;;;;;-2.84;72.41;94508.97;2071720;69;20176;-70
2021/12/18 09:02:22;;;;;;;78.05;39.28;;;;;;;-2.32;71.82;94500.91;2071580;69;20232;-69
2021/12/18 09:04:48;;;;;;;100.22;49.30;;;;;;;-1.80;77.83;94507.22;2070531;69;20164;-70
2021/12/18 09:07:14;;;;;;;90.18;45.95;;;;;;;-1.67;73.80;94500.59;2071149;69;20124;-69
2021/12/18 09:09:40;;;;;;;74.13;38.72;;;;;;;-1.34;73.06;94500.88;2071539;69;20151;-70
2021/12/18 09:12:10;;;;;;;48.88;26.55;;;;;;;-0.99;75.08;94499.91;2071526;69;20156;-70
2021/12/18 09:14:35;;;;;;;56.88;30.27;;;;;;;-0.89;73.30;94494.94;2071481;69;20164;-70
2021/12/18 09:17:01;;;;;;;65.07;30.80;;;;;;;-0.59;72.24;94489.84;2071545;69;20580;-69
2021/12/18 09:19:27;;;;;;;72.80;37.63;;;;;;;-0.52;71.87;94501.19;2071484;69;20148;-70
2021/12/18 09:21:52;;;;;;;58.50;32.35;;;;;;;-0.39;70.64;94495.22;2071360;69;20611;-69
2021/12/18 09:24:20;;;;;;;60.92;33.72;;;;;;;-0.19;69.71;94505.34;2071422;69;20144;-71
2021/12/18 09:26:46;;;;;;;57.67;31.50;;;;;;;-0.41;69.65;94497.72;2071435;69;20141;-70
2021/12/18 09:29:12;;;;;;;57.88;31.33;;;;;;;0.35;70.08;94502.50;2071453;69;20160;-71
2021/12/18 09:31:38;;;;;;;56.05;29.73;;;;;;;0.55;67.91;94495.22;2068169;69;20147;-71
2021/12/18 09:34:03;;;;;;;52.78;28.20;;;;;;;0.82;68.44;94490.97;2071454;69;20606;-70
2021/12/18 09:36:29;;;;;;;63.10;32.22;;;;;;;1.36;68.13;94496.97;2071368;69;20140;-72
2021/12/18 09:38:55;;;;;;;51.95;28.65;;;;;;;1.26;67.12;94487.41;2071985;69;20243;-70
2021/12/18 09:41:21;;;;;;;46.28;24.58;;;;;;;1.60;66.13;94484.56;2072085;69;20284;-70
2021/12/18 09:43:47;;;;;;;58.85;30.30;;;;;;;1.40;64.71;94486.38;2072042;69;20235;-71
2021/12/18 09:46:15;;;;;;;53.97;25.83;;;;;;;0.89;64.83;94480.13;2071961;69;20164;-70
2021/12/18 09:48:43;;;;;;;36.30;19.67;;;;;;;1.37;66.07;94472.75;2071955;69;20205;-71
2021/12/18 09:51:22;;;;;;;26.67;14.68;;;;;;;2.06;64.76;94472.75;2071810;69;20164;-69
2021/12/18 09:53:50;;;;;;;37.63;20.10;;;;;;;2.04;62.97;94472.53;2071930;69;20231;-70
2021/12/18 09:56:16;;;;;;;22.65;13.40;;;;;;;1.52;64.00;94474.00;2071867;69;20235;-70
2021/12/18 09:58:41;;;;;;;29.50;17.15;;;;;;;1.75;62.67;94466.34;2072112;69;20133;-70
2021/12/18 10:01:07;;;;;;;20.73;12.55;;;;;;;2.23;62.34;94467.88;2071949;69;20148;-70
2021/12/18 10:03:50;;;;;;;25.05;15.50;;;;;;;2.77;62.52;94460.97;2071889;69;20136;-70
2021/12/18 10:06:34;;;;;;;;;;;;;;;3.07;61.70;94463.75;2071941;69;20152;-71
2021/12/18 10:09:00;;;;;;;23.02;12.63;;;;;;;3.72;60.78;94454.50;2071979;69;20076;-71
2021/12/18 10:11:25;;;;;;;18.08;10.30;;;;;;;3.62;59.10;94447.00;2071879;69;20152;-71
2021/12/18 10:13:51;;;;;;;18.70;11.00;;;;;;;4.46;59.56;94451.53;2071908;69;20642;-68
2021/12/18 10:16:17;;;;;;;17.50;9.48;;;;;;;4.46;57.30;94446.72;2071915;69;20224;-70
2021/12/18 10:18:43;;;;;;;15.13;7.93;;;;;;;4.66;57.96;94442.59;2071913;69;20634;-69
2021/12/18 10:21:17;;;;;;;12.30;7.10;;;;;;;5.64;56.40;94432.84;2071802;69;20156;-70
2021/12/18 10:23:44;;;;;;;10.40;6.57;;;;;;;5.56;53.63;94427.91;2071905;69;20172;-69
2021/12/18 10:26:29;;;;;;;8.27;5.40;;;;;;;5.84;53.25;94430.16;2068573;69;20227;-70
2021/12/18 10:28:56;;;;;;;18.88;11.27;;;;;;;5.63;52.92;94434.13;2071911;69;20131;-70
2021/12/18 10:31:45;;;;;;;26.77;15.43;;;;;;;6.13;51.13;94438.00;2071875;69;20129;-70
2021/12/18 10:34:20;;;;;;;16.27;9.75;;;;;;;5.59;50.36;94431.66;2071825;69;20172;-70
2021/12/18 10:37:07;;;;;;;15.25;9.90;;;;;;;5.73;50.27;94424.03;2071823;69;20169;-69
2021/12/18 10:39:35;;;;;;;17.52;10.85;;;;;;;6.42;50.21;94427.72;2071931;69;20637;-69
2021/12/18 10:42:21;;;;;;;25.40;12.95;;;;;;;6.64;49.66;94424.41;2071845;69;20179;-69
2021/12/18 10:45:03;;;;;;;20.48;13.07;;;;;;;7.15;47.55;94418.38;2070781;69;20156;-68
2021/12/18 10:48:08;;;;;;;17.38;11.00;;;;;;;6.72;49.38;94421.69;2070530;69;20615;-69
2021/12/18 10:50:39;;;;;;;29.17;17.58;;;;;;;7.70;47.84;94423.84;2061021;69;20176;-68
2021/12/18 10:53:29;;;;;;;15.85;10.13;;;;;;;8.70;45.95;94405.38;2069754;69;20156;-68
2021/12/18 10:55:57;;;;;;;16.20;9.55;;;;;;;8.27;44.23;94406.91;2070796;69;20144;-68
2021/12/18 10:58:30;;;;;;;15.70;11.65;;;;;;;9.33;44.84;94416.91;2071158;69;20246;-68
2021/12/18 11:00:57;;;;;;;;;;;;;;;10.41;40.74;94404.16;2070863;69;20164;-69
2021/12/18 11:03:33;;;;;;;30.83;19.23;;;;;;;9.38;40.82;94404.72;2071380;69;20075;-70
2021/12/18 11:06:15;;;;;;;25.33;14.98;;;;;;;9.33;41.23;94404.91;2067387;69;20173;-69
2021/12/18 11:08:53;;;;;;;15.68;10.60;;;;;;;8.16;42.16;94401.63;2064816;69;20254;-68
2021/12/18 11:14:08;;;;;;;21.15;16.17;;;;;;;6.80;44.54;94386.88;2064988;69;20183;-69
2021/12/18 11:16:36;;;;;;;19.27;12.65;;;;;;;6.80;45.99;94378.47;2064593;69;20615;-69
2021/12/18 11:19:04;;;;;;;21.92;14.98;;;;;;;6.19;46.35;94380.66;2064562;69;20136;-69
2021/12/18 11:21:30;;;;;;;19.58;13.00;;;;;;;6.18;46.72;94370.75;2064729;69;20553;-74
2021/12/18 11:24:01;;;;;;;21.02;14.25;;;;;;;5.40;48.06;94372.34;2064654;69;20152;-69
2021/12/18 11:26:41;;;;;;;22.23;13.90;;;;;;;4.87;49.45;94358.31;2064910;69;20161;-68
2021/12/18 11:29:14;;;;;;;22.92;13.20;;;;;;;4.90;49.40;94338.44;2064117;69;20160;-70
2021/12/18 11:31:42;;;;;;;20.33;13.43;;;;;;;4.92;50.36;94338.69;2064275;69;20268;-69
2021/12/18 11:34:07;;;;;;;20.13;12.50;;;;;;;3.98;51.67;94338.91;2063829;69;20603;-70
2021/12/18 11:36:37;;;;;;;23.02;13.82;;;;;;;3.96;53.35;94333.88;2064680;69;20176;-69
2021/12/18 11:39:03;;;;;;;28.90;17.33;;;;;;;3.87;51.52;94316.78;2064718;69;20161;-69
2021/12/18 11:41:29;;;;;;;26.45;15.70;;;;;;;3.72;51.57;94317.25;2064920;69;20164;-69
2021/12/18 11:43:55;;;;;;;26.33;17.10;;;;;;;3.60;52.45;94308.28;2064946;69;20188;-69
2021/12/18 11:46:30;;;;;;;28.00;18.15;;;;;;;3.35;53.38;94304.06;2064927;69;20204;-70
2021/12/18 11:49:01;;;;;;;45.90;24.67;;;;;;;2.68;55.25;94306.28;2064628;69;20185;-68
2021/12/18 11:51:28;;;;;;;25.80;14.98;;;;;;;2.75;54.53;94304.97;2064738;69;20147;-69
2021/12/18 11:53:54;;;;;;;40.30;21.17;;;;;;;2.60;54.95;94293.47;2064974;69;20597;-68
2021/12/18 11:56:20;;;;;;;30.27;18.27;;;;;;;2.75;56.50;94297.38;2064497;69;20157;-67
2021/12/18 11:58:48;;;;;;;35.28;21.30;;;;;;;2.79;55.05;94289.50;2064833;69;20152;-67
2021/12/18 12:01:25;;;;;;;79.90;38.47;;;;;;;1.65;58.49;94292.97;2064337;69;20605;-67
2021/12/18 12:03:51;;;;;;;63.67;35.78;;;;;;;2.09;56.54;94288.38;2065084;69;20149;-67
2021/12/18 12:06:35;;;;;;;69.43;37.97;;;;;;;1.89;56.59;94294.34;2064740;69;20511;-67
2021/12/18 12:09:26;;;;;;;76.28;38.45;;;;;;;1.98;56.87;94280.88;2064607;69;20181;-67
2021/12/18 12:12:02;;;;;;;65.43;33.42;;;;;;;2.05;57.09;94265.66;2064163;69;20147;-67